sensor_id;sensor_type;location;lat;lon;timestamp;temperature;humidity
36450;DHT22;22475;51.390;7.180;2023-11-22T00:00:36;12.80;80.40
36450;DHT22;22475;51.390;7.180;2023-11-22T00:03:03;12.80;79.80
36450;DHT22;22475;51.390;7.180;2023-11-22T00:05:30;12.80;80.10
36450;DHT22;22475;51.390;7.180;2023-11-22T00:07:57;12.80;80.00
36450;DHT22;22475;51.390;7.180;2023-11-22T00:10:25;12.80;79.60
36450;DHT22;22475;51.390;7.180;2023-11-22T00:12:51;12.80;79.10
36450;DHT22;22475;51.390;7.180;2023-11-22T00:15:18;12.80;79.40
36450;DHT22;22475;51.390;7.180;2023-11-22T00:17:45;12.80;79.90
36450;DHT22;22475;51.390;7.180;2023-11-22T00:20:13;12.80;80.10
36450;DHT22;22475;51.390;7.180;2023-11-22T00:22:39;12.80;80.10
36450;DHT22;22475;51.390;7.180;2023-11-22T00:25:07;12.80;80.10
36450;DHT22;22475;51.390;7.180;2023-11-22T00:27:35;12.80;80.40
36450;DHT22;22475;51.390;7.180;2023-11-22T00:30:03;12.80;80.80
36450;DHT22;22475;51.390;7.180;2023-11-22T00:32:31;12.80;80.40
36450;DHT22;22475;51.390;7.180;2023-11-22T00:34:57;12.80;79.90
36450;DHT22;22475;51.390;7.180;2023-11-22T00:37:24;12.80;80.10
36450;DHT22;22475;51.390;7.180;2023-11-22T00:39:51;12.80;80.40
36450;DHT22;22475;51.390;7.180;2023-11-22T00:42:18;12.80;80.30
36450;DHT22;22475;51.390;7.180;2023-11-22T00:44:47;12.80;80.40
36450;DHT22;22475;51.390;7.180;2023-11-22T00:47:13;12.80;80.80
36450;DHT22;22475;51.390;7.180;2023-11-22T00:49:42;12.80;80.60
36450;DHT22;22475;51.390;7.180;2023-11-22T00:52:08;12.80;80.30
36450;DHT22;22475;51.390;7.180;2023-11-22T00:54:35;12.80;80.60
36450;DHT22;22475;51.390;7.180;2023-11-22T00:57:02;12.80;80.80
36450;DHT22;22475;51.390;7.180;2023-11-22T00:59:29;12.80;80.80
36450;DHT22;22475;51.390;7.180;2023-11-22T01:01:57;12.80;80.80
36450;DHT22;22475;51.390;7.180;2023-11-22T01:04:24;12.80;80.80
36450;DHT22;22475;51.390;7.180;2023-11-22T01:06:50;12.80;80.50
36450;DHT22;22475;51.390;7.180;2023-11-22T01:09:17;12.70;80.20
36450;DHT22;22475;51.390;7.180;2023-11-22T01:11:44;12.70;80.30
36450;DHT22;22475;51.390;7.180;2023-11-22T01:14:11;12.70;80.30
36450;DHT22;22475;51.390;7.180;2023-11-22T01:16:38;12.70;80.20
36450;DHT22;22475;51.390;7.180;2023-11-22T01:19:06;12.70;80.10
36450;DHT22;22475;51.390;7.180;2023-11-22T01:21:34;12.70;79.70
36450;DHT22;22475;51.390;7.180;2023-11-22T01:24:01;12.70;79.70
36450;DHT22;22475;51.390;7.180;2023-11-22T01:26:28;12.70;79.80
36450;DHT22;22475;51.390;7.180;2023-11-22T01:28:56;12.70;79.60
36450;DHT22;22475;51.390;7.180;2023-11-22T01:31:23;12.70;79.50
36450;DHT22;22475;51.390;7.180;2023-11-22T01:33:51;12.70;79.60
36450;DHT22;22475;51.390;7.180;2023-11-22T01:36:19;12.70;79.70
36450;DHT22;22475;51.390;7.180;2023-11-22T01:38:46;12.70;79.80
36450;DHT22;22475;51.390;7.180;2023-11-22T01:41:13;12.70;79.90
36450;DHT22;22475;51.390;7.180;2023-11-22T01:43:40;12.70;80.20
36450;DHT22;22475;51.390;7.180;2023-11-22T01:46:07;12.60;80.20
36450;DHT22;22475;51.390;7.180;2023-11-22T01:48:34;12.70;80.40
36450;DHT22;22475;51.390;7.180;2023-11-22T01:51:02;12.70;80.20
36450;DHT22;22475;51.390;7.180;2023-11-22T01:53:31;12.70;80.00
36450;DHT22;22475;51.390;7.180;2023-11-22T01:55:58;12.60;80.00
36450;DHT22;22475;51.390;7.180;2023-11-22T01:58:25;12.60;79.80
36450;DHT22;22475;51.390;7.180;2023-11-22T02:00:52;12.60;80.40
36450;DHT22;22475;51.390;7.180;2023-11-22T02:03:19;12.60;79.70
36450;DHT22;22475;51.390;7.180;2023-11-22T02:05:46;12.60;79.70
36450;DHT22;22475;51.390;7.180;2023-11-22T02:08:13;12.60;79.40
36450;DHT22;22475;51.390;7.180;2023-11-22T02:10:41;12.60;79.10
36450;DHT22;22475;51.390;7.180;2023-11-22T02:13:10;12.60;79.10
36450;DHT22;22475;51.390;7.180;2023-11-22T02:15:37;12.60;79.20
36450;DHT22;22475;51.390;7.180;2023-11-22T02:18:04;12.60;79.30
36450;DHT22;22475;51.390;7.180;2023-11-22T02:20:32;12.50;79.40
36450;DHT22;22475;51.390;7.180;2023-11-22T02:23:07;12.60;79.60
36450;DHT22;22475;51.390;7.180;2023-11-22T02:25:35;12.60;79.80
36450;DHT22;22475;51.390;7.180;2023-11-22T02:28:02;12.60;79.80
36450;DHT22;22475;51.390;7.180;2023-11-22T02:30:29;12.60;79.80
36450;DHT22;22475;51.390;7.180;2023-11-22T02:32:55;12.60;79.90
36450;DHT22;22475;51.390;7.180;2023-11-22T02:35:22;12.50;80.00
36450;DHT22;22475;51.390;7.180;2023-11-22T02:37:49;12.60;80.00
36450;DHT22;22475;51.390;7.180;2023-11-22T02:40:19;12.60;79.70
36450;DHT22;22475;51.390;7.180;2023-11-22T02:42:46;12.60;79.90
36450;DHT22;22475;51.390;7.180;2023-11-22T02:45:13;12.60;79.80
36450;DHT22;22475;51.390;7.180;2023-11-22T02:47:40;12.60;79.70
36450;DHT22;22475;51.390;7.180;2023-11-22T02:50:11;12.60;79.50
36450;DHT22;22475;51.390;7.180;2023-11-22T02:52:38;12.60;79.30
36450;DHT22;22475;51.390;7.180;2023-11-22T02:55:06;12.60;78.90
36450;DHT22;22475;51.390;7.180;2023-11-22T02:57:36;12.60;78.80
36450;DHT22;22475;51.390;7.180;2023-11-22T03:00:04;12.60;78.70
36450;DHT22;22475;51.390;7.180;2023-11-22T03:02:32;12.60;78.90
36450;DHT22;22475;51.390;7.180;2023-11-22T03:04:59;12.60;79.00
36450;DHT22;22475;51.390;7.180;2023-11-22T03:07:26;12.60;79.00
36450;DHT22;22475;51.390;7.180;2023-11-22T03:09:53;12.60;78.60
36450;DHT22;22475;51.390;7.180;2023-11-22T03:12:21;12.60;78.50
36450;DHT22;22475;51.390;7.180;2023-11-22T03:14:50;12.60;78.30
36450;DHT22;22475;51.390;7.180;2023-11-22T03:17:16;12.60;78.10
36450;DHT22;22475;51.390;7.180;2023-11-22T03:19:43;12.60;78.00
36450;DHT22;22475;51.390;7.180;2023-11-22T03:22:12;12.50;77.70
36450;DHT22;22475;51.390;7.180;2023-11-22T03:24:38;12.50;77.60
36450;DHT22;22475;51.390;7.180;2023-11-22T03:27:05;12.50;77.50
36450;DHT22;22475;51.390;7.180;2023-11-22T03:29:33;12.50;77.20
36450;DHT22;22475;51.390;7.180;2023-11-22T03:32:01;12.50;77.10
36450;DHT22;22475;51.390;7.180;2023-11-22T03:34:28;12.50;77.00
36450;DHT22;22475;51.390;7.180;2023-11-22T03:36:55;12.50;76.90
36450;DHT22;22475;51.390;7.180;2023-11-22T03:39:22;12.50;77.00
36450;DHT22;22475;51.390;7.180;2023-11-22T03:41:49;12.40;76.70
36450;DHT22;22475;51.390;7.180;2023-11-22T03:44:16;12.40;76.80
36450;DHT22;22475;51.390;7.180;2023-11-22T03:46:43;12.40;76.90
36450;DHT22;22475;51.390;7.180;2023-11-22T03:49:11;12.40;77.00
36450;DHT22;22475;51.390;7.180;2023-11-22T03:51:39;12.40;77.20
36450;DHT22;22475;51.390;7.180;2023-11-22T03:54:06;12.40;77.20
36450;DHT22;22475;51.390;7.180;2023-11-22T03:56:32;12.40;77.70
36450;DHT22;22475;51.390;7.180;2023-11-22T03:59:00;12.40;77.00
36450;DHT22;22475;51.390;7.180;2023-11-22T04:01:26;12.40;76.30
36450;DHT22;22475;51.390;7.180;2023-11-22T04:03:53;12.40;76.00
36450;DHT22;22475;51.390;7.180;2023-11-22T04:06:21;12.40;75.80
36450;DHT22;22475;51.390;7.180;2023-11-22T04:08:48;12.40;75.90
36450;DHT22;22475;51.390;7.180;2023-11-22T04:11:16;12.40;75.80
36450;DHT22;22475;51.390;7.180;2023-11-22T04:13:43;12.40;75.80
36450;DHT22;22475;51.390;7.180;2023-11-22T04:16:11;12.40;76.10
36450;DHT22;22475;51.390;7.180;2023-11-22T04:18:38;12.40;76.30
36450;DHT22;22475;51.390;7.180;2023-11-22T04:21:05;12.30;75.90
36450;DHT22;22475;51.390;7.180;2023-11-22T04:23:33;12.40;75.80
36450;DHT22;22475;51.390;7.180;2023-11-22T04:26:01;12.30;75.70
36450;DHT22;22475;51.390;7.180;2023-11-22T04:28:28;12.30;75.30
36450;DHT22;22475;51.390;7.180;2023-11-22T04:30:55;12.30;75.20
36450;DHT22;22475;51.390;7.180;2023-11-22T04:33:22;12.20;75.20
36450;DHT22;22475;51.390;7.180;2023-11-22T04:35:49;12.20;75.10
36450;DHT22;22475;51.390;7.180;2023-11-22T04:38:16;12.20;75.30
36450;DHT22;22475;51.390;7.180;2023-11-22T04:40:44;12.20;74.90
36450;DHT22;22475;51.390;7.180;2023-11-22T04:43:11;12.20;74.70
36450;DHT22;22475;51.390;7.180;2023-11-22T04:45:38;12.20;74.70
36450;DHT22;22475;51.390;7.180;2023-11-22T04:48:05;12.10;74.60
36450;DHT22;22475;51.390;7.180;2023-11-22T04:50:32;12.10;74.40
36450;DHT22;22475;51.390;7.180;2023-11-22T04:53:00;12.10;74.50
36450;DHT22;22475;51.390;7.180;2023-11-22T04:55:28;12.10;74.40
36450;DHT22;22475;51.390;7.180;2023-11-22T04:57:56;12.10;74.40
36450;DHT22;22475;51.390;7.180;2023-11-22T05:00:22;12.10;74.50
36450;DHT22;22475;51.390;7.180;2023-11-22T05:02:49;12.00;74.60
36450;DHT22;22475;51.390;7.180;2023-11-22T05:05:16;12.00;74.30
36450;DHT22;22475;51.390;7.180;2023-11-22T05:07:43;12.00;74.10
36450;DHT22;22475;51.390;7.180;2023-11-22T05:10:10;12.00;74.10
36450;DHT22;22475;51.390;7.180;2023-11-22T05:12:37;12.00;74.10
36450;DHT22;22475;51.390;7.180;2023-11-22T05:15:07;11.90;73.90
36450;DHT22;22475;51.390;7.180;2023-11-22T05:17:34;12.00;74.10
36450;DHT22;22475;51.390;7.180;2023-11-22T05:20:01;12.00;74.40
36450;DHT22;22475;51.390;7.180;2023-11-22T05:22:28;11.90;74.30
36450;DHT22;22475;51.390;7.180;2023-11-22T05:24:54;11.90;74.00
36450;DHT22;22475;51.390;7.180;2023-11-22T05:27:21;11.90;73.80
36450;DHT22;22475;51.390;7.180;2023-11-22T05:29:48;11.90;73.70
36450;DHT22;22475;51.390;7.180;2023-11-22T05:32:16;11.80;73.80
36450;DHT22;22475;51.390;7.180;2023-11-22T05:34:43;11.90;74.00
36450;DHT22;22475;51.390;7.180;2023-11-22T05:37:10;11.80;73.80
36450;DHT22;22475;51.390;7.180;2023-11-22T05:39:37;11.80;73.50
36450;DHT22;22475;51.390;7.180;2023-11-22T05:42:04;11.80;73.00
36450;DHT22;22475;51.390;7.180;2023-11-22T05:44:32;11.80;73.10
36450;DHT22;22475;51.390;7.180;2023-11-22T05:46:59;11.80;72.90
36450;DHT22;22475;51.390;7.180;2023-11-22T05:49:27;11.80;72.60
36450;DHT22;22475;51.390;7.180;2023-11-22T05:51:54;11.80;72.80
36450;DHT22;22475;51.390;7.180;2023-11-22T05:54:20;11.80;72.60
36450;DHT22;22475;51.390;7.180;2023-11-22T05:56:47;11.80;72.30
36450;DHT22;22475;51.390;7.180;2023-11-22T05:59:14;11.70;72.10
36450;DHT22;22475;51.390;7.180;2023-11-22T06:01:41;11.70;72.00
36450;DHT22;22475;51.390;7.180;2023-11-22T06:04:07;11.70;71.80
36450;DHT22;22475;51.390;7.180;2023-11-22T06:06:36;11.70;71.70
36450;DHT22;22475;51.390;7.180;2023-11-22T06:09:03;11.70;71.40
36450;DHT22;22475;51.390;7.180;2023-11-22T06:11:32;11.70;71.50
36450;DHT22;22475;51.390;7.180;2023-11-22T06:13:59;11.60;71.40
36450;DHT22;22475;51.390;7.180;2023-11-22T06:16:26;11.70;71.60
36450;DHT22;22475;51.390;7.180;2023-11-22T06:18:52;11.70;71.40
36450;DHT22;22475;51.390;7.180;2023-11-22T06:21:19;11.60;71.00
36450;DHT22;22475;51.390;7.180;2023-11-22T06:23:47;11.60;70.70
36450;DHT22;22475;51.390;7.180;2023-11-22T06:26:15;11.60;70.70
36450;DHT22;22475;51.390;7.180;2023-11-22T06:28:42;11.60;70.70
36450;DHT22;22475;51.390;7.180;2023-11-22T06:31:11;11.60;70.60
36450;DHT22;22475;51.390;7.180;2023-11-22T06:33:38;11.60;70.20
36450;DHT22;22475;51.390;7.180;2023-11-22T06:36:05;11.60;70.40
36450;DHT22;22475;51.390;7.180;2023-11-22T06:38:32;11.60;70.30
36450;DHT22;22475;51.390;7.180;2023-11-22T06:41:01;11.50;70.00
36450;DHT22;22475;51.390;7.180;2023-11-22T06:43:28;11.50;69.90
36450;DHT22;22475;51.390;7.180;2023-11-22T06:45:55;11.50;69.90
36450;DHT22;22475;51.390;7.180;2023-11-22T06:48:22;11.50;69.70
36450;DHT22;22475;51.390;7.180;2023-11-22T06:50:49;11.50;69.80
36450;DHT22;22475;51.390;7.180;2023-11-22T06:53:15;11.50;69.40
36450;DHT22;22475;51.390;7.180;2023-11-22T06:55:45;11.50;69.10
36450;DHT22;22475;51.390;7.180;2023-11-22T06:58:13;11.50;69.10
36450;DHT22;22475;51.390;7.180;2023-11-22T07:00:40;11.50;69.40
36450;DHT22;22475;51.390;7.180;2023-11-22T07:03:06;11.50;69.50
36450;DHT22;22475;51.390;7.180;2023-11-22T07:05:33;11.40;69.30
36450;DHT22;22475;51.390;7.180;2023-11-22T07:08:01;11.40;69.00
36450;DHT22;22475;51.390;7.180;2023-11-22T07:10:28;11.40;69.20
36450;DHT22;22475;51.390;7.180;2023-11-22T07:12:59;11.40;69.30
36450;DHT22;22475;51.390;7.180;2023-11-22T07:15:28;11.40;69.20
36450;DHT22;22475;51.390;7.180;2023-11-22T07:17:55;11.30;69.00
36450;DHT22;22475;51.390;7.180;2023-11-22T07:20:22;11.30;69.10
36450;DHT22;22475;51.390;7.180;2023-11-22T07:22:49;11.40;68.90
36450;DHT22;22475;51.390;7.180;2023-11-22T07:25:20;11.40;68.80
36450;DHT22;22475;51.390;7.180;2023-11-22T07:27:51;11.40;68.40
36450;DHT22;22475;51.390;7.180;2023-11-22T07:30:19;11.40;68.70
36450;DHT22;22475;51.390;7.180;2023-11-22T07:32:49;11.40;69.10
36450;DHT22;22475;51.390;7.180;2023-11-22T07:35:17;11.40;69.20
36450;DHT22;22475;51.390;7.180;2023-11-22T07:37:45;11.30;68.90
36450;DHT22;22475;51.390;7.180;2023-11-22T07:40:13;11.30;68.60
36450;DHT22;22475;51.390;7.180;2023-11-22T07:42:40;11.40;68.60
36450;DHT22;22475;51.390;7.180;2023-11-22T07:45:08;11.30;68.80
36450;DHT22;22475;51.390;7.180;2023-11-22T07:47:37;11.30;69.10
36450;DHT22;22475;51.390;7.180;2023-11-22T07:50:07;11.30;69.20
36450;DHT22;22475;51.390;7.180;2023-11-22T07:52:34;11.30;69.00
36450;DHT22;22475;51.390;7.180;2023-11-22T07:55:02;11.30;69.00
36450;DHT22;22475;51.390;7.180;2023-11-22T07:57:29;11.30;69.00
36450;DHT22;22475;51.390;7.180;2023-11-22T07:59:55;11.30;69.40
36450;DHT22;22475;51.390;7.180;2023-11-22T08:02:22;11.30;69.30
36450;DHT22;22475;51.390;7.180;2023-11-22T08:04:49;11.30;69.50
36450;DHT22;22475;51.390;7.180;2023-11-22T08:07:18;11.30;69.70
36450;DHT22;22475;51.390;7.180;2023-11-22T08:09:47;11.30;69.70
36450;DHT22;22475;51.390;7.180;2023-11-22T08:12:14;11.30;70.00
36450;DHT22;22475;51.390;7.180;2023-11-22T08:14:40;11.30;70.20
36450;DHT22;22475;51.390;7.180;2023-11-22T08:17:09;11.30;70.50
36450;DHT22;22475;51.390;7.180;2023-11-22T08:19:37;11.40;70.40
36450;DHT22;22475;51.390;7.180;2023-11-22T08:22:05;11.40;70.20
36450;DHT22;22475;51.390;7.180;2023-11-22T08:24:34;11.40;70.40
36450;DHT22;22475;51.390;7.180;2023-11-22T08:27:00;11.30;70.50
36450;DHT22;22475;51.390;7.180;2023-11-22T08:29:28;11.40;70.60
36450;DHT22;22475;51.390;7.180;2023-11-22T08:31:55;11.40;70.70
36450;DHT22;22475;51.390;7.180;2023-11-22T08:34:23;11.40;70.70
36450;DHT22;22475;51.390;7.180;2023-11-22T08:36:50;11.40;70.90
36450;DHT22;22475;51.390;7.180;2023-11-22T08:39:17;11.40;71.40
36450;DHT22;22475;51.390;7.180;2023-11-22T08:41:45;11.40;71.10
36450;DHT22;22475;51.390;7.180;2023-11-22T08:44:13;11.40;71.00
36450;DHT22;22475;51.390;7.180;2023-11-22T08:46:39;11.40;71.30
36450;DHT22;22475;51.390;7.180;2023-11-22T08:49:06;11.40;71.60
36450;DHT22;22475;51.390;7.180;2023-11-22T08:51:33;11.40;71.70
36450;DHT22;22475;51.390;7.180;2023-11-22T08:54:00;11.40;71.80
36450;DHT22;22475;51.390;7.180;2023-11-22T08:56:26;11.40;71.50
36450;DHT22;22475;51.390;7.180;2023-11-22T08:58:55;11.40;71.80
36450;DHT22;22475;51.390;7.180;2023-11-22T09:01:21;11.40;71.70
36450;DHT22;22475;51.390;7.180;2023-11-22T09:03:48;11.40;71.90
36450;DHT22;22475;51.390;7.180;2023-11-22T09:06:16;11.50;72.40
36450;DHT22;22475;51.390;7.180;2023-11-22T09:08:44;11.50;72.60
36450;DHT22;22475;51.390;7.180;2023-11-22T09:11:11;11.50;72.80
36450;DHT22;22475;51.390;7.180;2023-11-22T09:13:38;11.50;72.90
36450;DHT22;22475;51.390;7.180;2023-11-22T09:16:07;11.50;73.20
36450;DHT22;22475;51.390;7.180;2023-11-22T09:18:34;11.50;73.30
36450;DHT22;22475;51.390;7.180;2023-11-22T09:21:01;11.50;73.40
36450;DHT22;22475;51.390;7.180;2023-11-22T09:23:28;11.60;73.60
36450;DHT22;22475;51.390;7.180;2023-11-22T09:25:55;11.60;73.60
36450;DHT22;22475;51.390;7.180;2023-11-22T09:28:22;11.60;73.60
36450;DHT22;22475;51.390;7.180;2023-11-22T09:30:48;11.60;73.20
36450;DHT22;22475;51.390;7.180;2023-11-22T09:33:17;11.60;73.20
36450;DHT22;22475;51.390;7.180;2023-11-22T09:35:45;11.70;73.50
36450;DHT22;22475;51.390;7.180;2023-11-22T09:38:13;11.70;73.10
36450;DHT22;22475;51.390;7.180;2023-11-22T09:40:42;11.70;72.70
36450;DHT22;22475;51.390;7.180;2023-11-22T09:43:09;11.70;73.40
36450;DHT22;22475;51.390;7.180;2023-11-22T09:45:36;11.70;73.50
36450;DHT22;22475;51.390;7.180;2023-11-22T09:48:21;11.70;72.90
36450;DHT22;22475;51.390;7.180;2023-11-22T09:50:56;11.70;73.20
36450;DHT22;22475;51.390;7.180;2023-11-22T09:53:29;11.80;71.40
36450;DHT22;22475;51.390;7.180;2023-11-22T09:55:57;11.80;69.70
36450;DHT22;22475;51.390;7.180;2023-11-22T09:58:25;11.80;69.00
36450;DHT22;22475;51.390;7.180;2023-11-22T10:00:53;11.80;68.10
36450;DHT22;22475;51.390;7.180;2023-11-22T10:03:21;11.80;67.70
36450;DHT22;22475;51.390;7.180;2023-11-22T10:05:50;11.80;67.90
36450;DHT22;22475;51.390;7.180;2023-11-22T10:08:18;11.80;67.00
36450;DHT22;22475;51.390;7.180;2023-11-22T10:10:49;11.80;68.30
36450;DHT22;22475;51.390;7.180;2023-11-22T10:13:17;11.80;67.80
36450;DHT22;22475;51.390;7.180;2023-11-22T10:15:45;11.80;67.00
36450;DHT22;22475;51.390;7.180;2023-11-22T10:18:13;11.90;65.90
36450;DHT22;22475;51.390;7.180;2023-11-22T10:20:41;11.90;64.90
36450;DHT22;22475;51.390;7.180;2023-11-22T10:23:10;11.80;64.10
36450;DHT22;22475;51.390;7.180;2023-11-22T10:25:43;11.90;65.20
36450;DHT22;22475;51.390;7.180;2023-11-22T10:28:10;11.90;65.40
36450;DHT22;22475;51.390;7.180;2023-11-22T10:30:37;11.90;64.00
36450;DHT22;22475;51.390;7.180;2023-11-22T10:33:06;11.90;62.90
36450;DHT22;22475;51.390;7.180;2023-11-22T10:35:32;11.90;62.10
36450;DHT22;22475;51.390;7.180;2023-11-22T10:37:59;11.90;62.20
36450;DHT22;22475;51.390;7.180;2023-11-22T10:40:30;11.90;62.50
36450;DHT22;22475;51.390;7.180;2023-11-22T10:42:56;11.90;61.60
36450;DHT22;22475;51.390;7.180;2023-11-22T10:45:26;11.90;60.40
36450;DHT22;22475;51.390;7.180;2023-11-22T10:47:56;11.90;59.90
36450;DHT22;22475;51.390;7.180;2023-11-22T10:50:23;11.90;59.70
36450;DHT22;22475;51.390;7.180;2023-11-22T10:52:52;11.90;59.60
36450;DHT22;22475;51.390;7.180;2023-11-22T10:55:21;11.90;60.20
36450;DHT22;22475;51.390;7.180;2023-11-22T10:57:56;11.90;60.80
36450;DHT22;22475;51.390;7.180;2023-11-22T11:00:24;11.90;59.80
36450;DHT22;22475;51.390;7.180;2023-11-22T11:02:59;12.00;60.40
36450;DHT22;22475;51.390;7.180;2023-11-22T11:05:30;12.00;62.00
36450;DHT22;22475;51.390;7.180;2023-11-22T11:08:01;12.00;61.20
36450;DHT22;22475;51.390;7.180;2023-11-22T11:10:32;12.00;61.80
36450;DHT22;22475;51.390;7.180;2023-11-22T11:13:01;12.00;61.60
36450;DHT22;22475;51.390;7.180;2023-11-22T11:15:28;12.00;62.00
36450;DHT22;22475;51.390;7.180;2023-11-22T11:17:56;12.00;61.70
36450;DHT22;22475;51.390;7.180;2023-11-22T11:20:23;12.00;62.10
36450;DHT22;22475;51.390;7.180;2023-11-22T11:22:50;12.00;62.20
36450;DHT22;22475;51.390;7.180;2023-11-22T11:25:17;12.00;61.00
36450;DHT22;22475;51.390;7.180;2023-11-22T11:27:45;12.10;60.30
36450;DHT22;22475;51.390;7.180;2023-11-22T11:30:41;12.00;61.00
36450;DHT22;22475;51.390;7.180;2023-11-22T11:33:09;12.10;61.40
36450;DHT22;22475;51.390;7.180;2023-11-22T11:35:38;12.10;61.50
36450;DHT22;22475;51.390;7.180;2023-11-22T11:38:05;12.10;60.30
36450;DHT22;22475;51.390;7.180;2023-11-22T11:40:35;12.10;60.90
36450;DHT22;22475;51.390;7.180;2023-11-22T11:43:02;12.10;60.60
36450;DHT22;22475;51.390;7.180;2023-11-22T11:45:29;12.10;59.30
36450;DHT22;22475;51.390;7.180;2023-11-22T11:47:58;12.10;60.30
36450;DHT22;22475;51.390;7.180;2023-11-22T11:50:25;12.10;59.90
36450;DHT22;22475;51.390;7.180;2023-11-22T11:52:52;12.10;59.30
36450;DHT22;22475;51.390;7.180;2023-11-22T11:55:19;12.10;58.60
36450;DHT22;22475;51.390;7.180;2023-11-22T11:57:46;12.10;58.60
36450;DHT22;22475;51.390;7.180;2023-11-22T12:00:14;12.10;58.50
36450;DHT22;22475;51.390;7.180;2023-11-22T12:02:41;12.20;58.80
36450;DHT22;22475;51.390;7.180;2023-11-22T12:05:09;12.20;58.80
36450;DHT22;22475;51.390;7.180;2023-11-22T12:07:36;12.20;58.60
36450;DHT22;22475;51.390;7.180;2023-11-22T12:10:03;12.20;59.40
36450;DHT22;22475;51.390;7.180;2023-11-22T12:12:31;12.20;60.10
36450;DHT22;22475;51.390;7.180;2023-11-22T12:14:58;12.20;60.60
36450;DHT22;22475;51.390;7.180;2023-11-22T12:17:26;12.10;60.30
36450;DHT22;22475;51.390;7.180;2023-11-22T12:19:53;12.20;60.80
36450;DHT22;22475;51.390;7.180;2023-11-22T12:22:36;12.20;60.30
36450;DHT22;22475;51.390;7.180;2023-11-22T12:25:03;12.20;60.50
36450;DHT22;22475;51.390;7.180;2023-11-22T12:27:30;12.20;60.20
36450;DHT22;22475;51.390;7.180;2023-11-22T12:29:57;12.20;58.80
36450;DHT22;22475;51.390;7.180;2023-11-22T12:32:24;12.20;58.20
36450;DHT22;22475;51.390;7.180;2023-11-22T12:34:51;12.20;57.60
36450;DHT22;22475;51.390;7.180;2023-11-22T12:37:20;12.20;57.70
36450;DHT22;22475;51.390;7.180;2023-11-22T12:39:48;12.20;56.70
36450;DHT22;22475;51.390;7.180;2023-11-22T12:42:17;12.20;55.00
36450;DHT22;22475;51.390;7.180;2023-11-22T12:44:48;12.20;55.40
36450;DHT22;22475;51.390;7.180;2023-11-22T12:47:14;12.30;55.00
36450;DHT22;22475;51.390;7.180;2023-11-22T12:49:43;12.30;55.40
36450;DHT22;22475;51.390;7.180;2023-11-22T12:52:11;12.30;54.20
36450;DHT22;22475;51.390;7.180;2023-11-22T12:54:39;12.30;53.20
36450;DHT22;22475;51.390;7.180;2023-11-22T12:57:11;12.30;53.20
36450;DHT22;22475;51.390;7.180;2023-11-22T12:59:38;12.30;52.70
36450;DHT22;22475;51.390;7.180;2023-11-22T13:02:05;12.30;52.50
36450;DHT22;22475;51.390;7.180;2023-11-22T13:04:32;12.30;52.50
36450;DHT22;22475;51.390;7.180;2023-11-22T13:06:59;12.30;52.50
36450;DHT22;22475;51.390;7.180;2023-11-22T13:09:26;12.30;53.10
36450;DHT22;22475;51.390;7.180;2023-11-22T13:11:53;12.30;53.40
36450;DHT22;22475;51.390;7.180;2023-11-22T13:14:21;12.30;53.70
36450;DHT22;22475;51.390;7.180;2023-11-22T13:16:48;12.30;54.40
36450;DHT22;22475;51.390;7.180;2023-11-22T13:19:15;12.30;54.00
36450;DHT22;22475;51.390;7.180;2023-11-22T13:21:42;12.30;54.90
36450;DHT22;22475;51.390;7.180;2023-11-22T13:24:10;12.30;54.90
36450;DHT22;22475;51.390;7.180;2023-11-22T13:26:39;12.30;55.40
36450;DHT22;22475;51.390;7.180;2023-11-22T13:29:06;12.30;55.50
36450;DHT22;22475;51.390;7.180;2023-11-22T13:31:34;12.30;56.40
36450;DHT22;22475;51.390;7.180;2023-11-22T13:34:00;12.30;54.80
36450;DHT22;22475;51.390;7.180;2023-11-22T13:36:27;12.30;54.60
36450;DHT22;22475;51.390;7.180;2023-11-22T13:38:54;12.30;53.80
36450;DHT22;22475;51.390;7.180;2023-11-22T13:41:21;12.30;54.30
36450;DHT22;22475;51.390;7.180;2023-11-22T13:43:50;12.30;54.10
36450;DHT22;22475;51.390;7.180;2023-11-22T13:46:17;12.30;54.80
36450;DHT22;22475;51.390;7.180;2023-11-22T13:48:45;12.30;54.80
36450;DHT22;22475;51.390;7.180;2023-11-22T13:51:11;12.30;54.20
36450;DHT22;22475;51.390;7.180;2023-11-22T13:53:38;12.30;54.30
36450;DHT22;22475;51.390;7.180;2023-11-22T13:56:09;12.40;54.00
36450;DHT22;22475;51.390;7.180;2023-11-22T13:58:35;12.40;54.10
36450;DHT22;22475;51.390;7.180;2023-11-22T14:01:03;12.30;55.00
36450;DHT22;22475;51.390;7.180;2023-11-22T14:03:31;12.30;56.20
36450;DHT22;22475;51.390;7.180;2023-11-22T14:05:59;12.30;57.40
36450;DHT22;22475;51.390;7.180;2023-11-22T14:08:26;12.30;57.20
36450;DHT22;22475;51.390;7.180;2023-11-22T14:10:53;12.30;56.70
36450;DHT22;22475;51.390;7.180;2023-11-22T14:13:20;12.40;56.80
36450;DHT22;22475;51.390;7.180;2023-11-22T14:15:47;12.40;56.50
36450;DHT22;22475;51.390;7.180;2023-11-22T14:18:14;12.40;55.70
36450;DHT22;22475;51.390;7.180;2023-11-22T14:20:42;12.40;56.80
36450;DHT22;22475;51.390;7.180;2023-11-22T14:23:10;12.40;58.00
36450;DHT22;22475;51.390;7.180;2023-11-22T14:25:37;12.40;57.50
36450;DHT22;22475;51.390;7.180;2023-11-22T14:28:04;12.40;57.70
36450;DHT22;22475;51.390;7.180;2023-11-22T14:30:31;12.40;58.80
36450;DHT22;22475;51.390;7.180;2023-11-22T14:33:01;12.40;59.50
36450;DHT22;22475;51.390;7.180;2023-11-22T14:35:32;12.30;59.10
36450;DHT22;22475;51.390;7.180;2023-11-22T14:37:59;12.40;60.70
36450;DHT22;22475;51.390;7.180;2023-11-22T14:40:27;12.40;62.80
36450;DHT22;22475;51.390;7.180;2023-11-22T14:42:56;12.30;62.10
36450;DHT22;22475;51.390;7.180;2023-11-22T14:45:22;12.30;62.40
36450;DHT22;22475;51.390;7.180;2023-11-22T14:47:52;12.30;62.40
36450;DHT22;22475;51.390;7.180;2023-11-22T14:50:19;12.30;62.90
36450;DHT22;22475;51.390;7.180;2023-11-22T14:52:46;12.30;63.50
36450;DHT22;22475;51.390;7.180;2023-11-22T14:55:14;12.30;65.10
36450;DHT22;22475;51.390;7.180;2023-11-22T14:57:43;12.30;64.70
36450;DHT22;22475;51.390;7.180;2023-11-22T15:00:10;12.30;64.40
36450;DHT22;22475;51.390;7.180;2023-11-22T15:02:39;12.30;65.60
36450;DHT22;22475;51.390;7.180;2023-11-22T15:05:08;12.30;66.60
36450;DHT22;22475;51.390;7.180;2023-11-22T15:07:35;12.30;67.40
36450;DHT22;22475;51.390;7.180;2023-11-22T15:10:04;12.30;67.60
36450;DHT22;22475;51.390;7.180;2023-11-22T15:12:31;12.30;67.30
36450;DHT22;22475;51.390;7.180;2023-11-22T15:15:00;12.30;68.50
36450;DHT22;22475;51.390;7.180;2023-11-22T15:17:27;12.30;67.60
36450;DHT22;22475;51.390;7.180;2023-11-22T15:19:54;12.30;67.20
36450;DHT22;22475;51.390;7.180;2023-11-22T15:22:21;12.30;68.20
36450;DHT22;22475;51.390;7.180;2023-11-22T15:24:48;12.30;67.30
36450;DHT22;22475;51.390;7.180;2023-11-22T15:27:15;12.30;66.70
36450;DHT22;22475;51.390;7.180;2023-11-22T15:29:42;12.30;67.10
36450;DHT22;22475;51.390;7.180;2023-11-22T15:32:10;12.30;67.50